createdAt,value
2019-03-31T00:01:08.351Z,67.50
2019-03-31T00:03:39.123Z,67.70
2019-03-31T00:06:11.443Z,70.10
2019-03-31T00:08:43.115Z,69.90
2019-03-31T00:11:15.161Z,67.60
2019-03-31T00:13:46.730Z,69.50
2019-03-31T00:16:18.347Z,67.10
2019-03-31T00:18:49.956Z,67.50
2019-03-31T00:21:21.475Z,66.80
2019-03-31T00:23:52.940Z,68.70
2019-03-31T00:26:24.409Z,67.90
2019-03-31T00:28:55.896Z,67.50
2019-03-31T00:31:28.134Z,68.40
2019-03-31T00:34:02.721Z,68.40
2019-03-31T00:36:34.256Z,66.10
2019-03-31T00:39:08.664Z,67.40
2019-03-31T00:41:40.640Z,67.20
2019-03-31T00:44:12.403Z,65.80
2019-03-31T00:46:43.963Z,66.40
2019-03-31T00:49:16.014Z,66.50
2019-03-31T00:51:47.464Z,67.10
2019-03-31T00:54:19.084Z,65.70
2019-03-31T00:56:50.691Z,66.40
2019-03-31T00:59:22.233Z,65.70
2019-03-31T01:02:00.265Z,66.90
2019-03-31T01:04:34.130Z,68.20
2019-03-31T01:07:06.523Z,68.40
2019-03-31T01:09:38.478Z,70.60
2019-03-31T01:12:10.188Z,68.80
2019-03-31T01:14:45.452Z,69.20
2019-03-31T01:17:18.978Z,69.00
2019-03-31T01:19:52.372Z,69.80
2019-03-31T01:22:26.741Z,69.80
2019-03-31T01:24:58.314Z,71.30
2019-03-31T01:27:29.819Z,68.80
2019-03-31T01:30:01.302Z,69.00
2019-03-31T01:32:33.185Z,70.20
2019-03-31T01:35:05.975Z,69.60
2019-03-31T01:37:37.685Z,69.10
2019-03-31T01:40:09.415Z,69.50
2019-03-31T01:42:41.023Z,68.80
2019-03-31T01:45:13.253Z,68.60
2019-03-31T01:47:44.757Z,68.60
2019-03-31T01:50:18.131Z,69.80
2019-03-31T01:52:49.739Z,69.10
2019-03-31T01:55:21.285Z,68.40
2019-03-31T01:57:52.821Z,68.50
2019-03-31T02:00:42.197Z,69.50
2019-03-31T02:03:18.231Z,71.40
2019-03-31T02:05:50.054Z,71.40
2019-03-31T02:08:21.588Z,70.60
2019-03-31T02:10:53.103Z,71.30
2019-03-31T02:13:24.697Z,69.80
2019-03-31T02:15:56.325Z,71.10
2019-03-31T02:18:28.648Z,69.20
2019-03-31T02:21:00.197Z,72.20
2019-03-31T02:23:31.846Z,71.80
2019-03-31T02:26:03.695Z,72.20
2019-03-31T02:28:35.146Z,71.50
2019-03-31T02:31:06.792Z,71.80
2019-03-31T02:33:38.301Z,72.50
2019-03-31T02:36:09.885Z,72.90
2019-03-31T02:38:41.395Z,72.90
2019-03-31T02:41:12.885Z,73.50
2019-03-31T02:43:44.373Z,75.00
2019-03-31T02:46:15.915Z,74.90
2019-03-31T02:48:47.384Z,72.60
2019-03-31T02:51:18.990Z,73.80
2019-03-31T02:53:50.999Z,75.00
2019-03-31T02:56:23.900Z,74.90
2019-03-31T02:59:00.671Z,74.60
2019-03-31T03:01:34.613Z,74.00
2019-03-31T03:04:13.375Z,75.30
2019-03-31T03:06:45.762Z,75.70
2019-03-31T03:09:20.061Z,74.90
2019-03-31T03:11:54.368Z,74.30
2019-03-31T03:14:30.297Z,75.00
2019-03-31T03:17:01.785Z,74.10
2019-03-31T03:19:33.391Z,72.90
2019-03-31T03:22:04.947Z,73.90
2019-03-31T03:24:36.781Z,73.70
2019-03-31T03:27:08.404Z,73.80
2019-03-31T03:29:40.367Z,74.50
2019-03-31T03:32:13.182Z,75.00
2019-03-31T03:34:44.716Z,76.20
2019-03-31T03:37:16.266Z,74.50
2019-03-31T03:39:47.781Z,73.50
2019-03-31T03:42:21.056Z,73.10
2019-03-31T03:44:52.670Z,72.70
2019-03-31T03:47:24.263Z,73.00
2019-03-31T03:49:56.020Z,73.90
2019-03-31T03:52:28.194Z,72.60
2019-03-31T03:54:59.756Z,72.80
2019-03-31T03:57:31.327Z,72.60
2019-03-31T04:00:06.613Z,72.90
2019-03-31T04:02:38.147Z,73.50
2019-03-31T04:05:10.039Z,72.80
2019-03-31T04:07:41.657Z,73.90
2019-03-31T04:11:21.201Z,75.70
2019-03-31T04:13:51.840Z,75.40
2019-03-31T04:16:24.512Z,75.20
2019-03-31T04:18:56.051Z,74.10
2019-03-31T04:21:28.163Z,74.10
2019-03-31T04:23:59.973Z,74.90
2019-03-31T04:26:31.551Z,75.30
2019-03-31T04:29:03.211Z,75.60
2019-03-31T04:31:34.803Z,74.90
2019-03-31T04:34:06.344Z,75.20
2019-03-31T04:36:38.174Z,75.20
2019-03-31T04:39:10.395Z,76.40
2019-03-31T04:41:42.197Z,77.10
2019-03-31T04:44:13.669Z,76.40
2019-03-31T04:46:45.136Z,76.00
2019-03-31T04:49:16.710Z,76.40
2019-03-31T04:51:48.644Z,75.90
2019-03-31T04:54:20.224Z,75.90
2019-03-31T04:56:51.692Z,75.50
2019-03-31T04:59:23.193Z,75.30
2019-03-31T05:01:54.697Z,75.20
2019-03-31T05:04:27.657Z,74.90
2019-03-31T05:06:59.187Z,74.90
2019-03-31T05:09:30.732Z,75.40
2019-03-31T05:12:03.084Z,75.80
2019-03-31T05:14:35.561Z,76.70
2019-03-31T05:17:07.050Z,77.30
2019-03-31T05:19:38.762Z,77.80
2019-03-31T05:22:10.275Z,79.00
2019-03-31T05:24:41.764Z,80.50
2019-03-31T05:27:13.709Z,80.70
2019-03-31T05:29:45.200Z,82.90
2019-03-31T05:32:16.670Z,83.00
2019-03-31T05:34:48.189Z,83.70
2019-03-31T05:37:19.676Z,82.90
2019-03-31T05:39:51.157Z,83.50
2019-03-31T05:42:22.651Z,83.10
2019-03-31T05:44:54.373Z,83.20
2019-03-31T05:47:25.888Z,82.20
2019-03-31T05:49:57.773Z,82.60
2019-03-31T05:52:29.276Z,82.90
2019-03-31T05:55:01.193Z,82.90
2019-03-31T05:57:32.654Z,82.70
2019-03-31T06:00:04.363Z,82.60
2019-03-31T06:02:35.861Z,82.50
2019-03-31T06:05:07.391Z,82.60
2019-03-31T06:07:42.146Z,82.70
2019-03-31T06:10:13.741Z,81.20
2019-03-31T06:12:45.268Z,80.60
2019-03-31T06:15:18.149Z,80.10
2019-03-31T06:17:49.665Z,80.00
2019-03-31T06:20:22.189Z,79.90
2019-03-31T06:22:53.750Z,79.80
2019-03-31T06:25:26.373Z,80.00
2019-03-31T06:27:57.959Z,79.80
2019-03-31T06:30:29.635Z,80.70
2019-03-31T06:33:01.355Z,79.70
2019-03-31T06:35:34.364Z,79.70
2019-03-31T06:38:05.988Z,79.40
2019-03-31T06:40:37.646Z,78.80
2019-03-31T06:43:09.262Z,78.30
2019-03-31T06:45:40.819Z,78.50
2019-03-31T06:48:12.623Z,78.60
2019-03-31T06:50:46.681Z,78.60
2019-03-31T06:53:18.386Z,78.80
2019-03-31T06:55:53.017Z,78.20
2019-03-31T06:58:24.583Z,78.00
2019-03-31T07:00:56.257Z,78.00
2019-03-31T07:03:28.421Z,78.10
2019-03-31T07:06:01.861Z,77.30
2019-03-31T07:08:33.417Z,77.50
2019-03-31T07:11:05.714Z,77.20
2019-03-31T07:13:37.249Z,76.70
2019-03-31T07:16:08.803Z,77.10
2019-03-31T07:18:40.271Z,77.00
2019-03-31T07:21:11.927Z,76.00
2019-03-31T07:23:44.376Z,75.00
2019-03-31T07:26:15.935Z,75.20
2019-03-31T07:28:47.720Z,74.80
2019-03-31T07:31:19.246Z,75.10
2019-03-31T07:33:50.831Z,74.60
2019-03-31T07:36:23.748Z,75.50
2019-03-31T07:38:57.819Z,74.40
2019-03-31T07:41:34.817Z,74.60
2019-03-31T07:44:19.520Z,74.30
2019-03-31T07:54:17.241Z,75.40
2019-03-31T07:56:50.777Z,75.90
2019-03-31T07:59:26.054Z,75.30
2019-03-31T08:03:09.806Z,75.10
2019-03-31T08:05:51.325Z,75.20
2019-03-31T08:08:45.679Z,75.50
2019-03-31T08:21:38.701Z,72.40
2019-03-31T08:24:25.113Z,72.50
2019-03-31T08:27:14.852Z,71.60
2019-03-31T08:30:00.566Z,72.90
2019-03-31T08:35:47.661Z,71.70
2019-03-31T08:39:24.643Z,70.50
2019-03-31T08:41:56.555Z,72.40
2019-03-31T08:44:28.216Z,70.30
2019-03-31T08:46:59.800Z,70.20
2019-03-31T08:49:32.837Z,69.40
2019-03-31T08:52:04.523Z,68.50
2019-03-31T08:54:38.349Z,68.40
2019-03-31T08:57:10.345Z,69.60
2019-03-31T08:59:42.048Z,68.70
2019-03-31T09:02:32.304Z,68.20
2019-03-31T09:05:04.586Z,68.70
2019-03-31T09:07:42.524Z,68.10
2019-03-31T09:10:15.157Z,67.80
2019-03-31T09:12:48.543Z,65.40
2019-03-31T09:15:21.202Z,65.30
2019-03-31T09:17:54.418Z,65.70
2019-03-31T09:20:26.134Z,67.80
2019-03-31T09:22:57.976Z,63.50
2019-03-31T09:25:29.463Z,63.50
2019-03-31T09:28:02.171Z,64.50
2019-03-31T09:30:40.192Z,64.00
2019-03-31T09:33:13.057Z,62.00
2019-03-31T09:35:44.879Z,61.50
2019-03-31T09:38:16.862Z,63.00
2019-03-31T09:40:51.994Z,63.50
2019-03-31T09:43:24.138Z,62.30
2019-03-31T09:46:03.938Z,64.00
2019-03-31T09:48:36.126Z,60.50
2019-03-31T09:51:08.128Z,60.70
2019-03-31T09:53:40.068Z,59.90
2019-03-31T09:56:15.014Z,61.20
2019-03-31T09:58:44.907Z,60.20
2019-03-31T10:01:16.813Z,59.20
2019-03-31T10:03:48.258Z,60.40
2019-03-31T10:06:30.121Z,58.50
2019-03-31T10:08:56.036Z,60.00
2019-03-31T10:11:27.471Z,61.40
2019-03-31T10:13:58.930Z,62.90
2019-03-31T10:16:30.638Z,48.60
2019-03-31T10:19:02.069Z,50.20
2019-03-31T10:21:33.567Z,49.60
2019-03-31T10:24:05.215Z,44.50
2019-03-31T10:26:36.684Z,44.70
2019-03-31T10:29:08.225Z,42.50
2019-03-31T10:31:39.762Z,38.50
2019-03-31T10:34:11.327Z,40.20
2019-03-31T10:36:44.808Z,33.90
2019-03-31T10:39:17.291Z,37.20
2019-03-31T10:41:48.774Z,32.80
2019-03-31T10:44:20.478Z,34.40
2019-03-31T10:46:51.887Z,33.90
2019-03-31T10:49:23.413Z,31.60
2019-03-31T10:51:54.865Z,31.70
2019-03-31T10:54:27.152Z,31.30
2019-03-31T10:56:58.622Z,32.20
2019-03-31T10:59:33.348Z,32.10
2019-03-31T11:02:04.843Z,31.90
2019-03-31T11:04:36.461Z,29.80
2019-03-31T11:07:07.971Z,32.10
2019-03-31T11:09:39.507Z,35.30
2019-03-31T11:12:10.981Z,32.50
2019-03-31T11:14:42.752Z,31.30
2019-03-31T11:17:14.251Z,33.40
2019-03-31T11:19:45.954Z,31.50
2019-03-31T11:22:30.468Z,28.50
2019-03-31T11:25:01.915Z,29.70
2019-03-31T11:27:33.414Z,30.00
2019-03-31T11:30:05.524Z,33.30
2019-03-31T11:32:37.190Z,34.00
2019-03-31T11:35:09.056Z,34.70
2019-03-31T11:37:40.541Z,30.60
2019-03-31T11:40:13.021Z,31.60
2019-03-31T11:42:44.532Z,33.70
2019-03-31T11:45:16.784Z,33.70
2019-03-31T11:47:48.282Z,31.80
2019-03-31T11:50:19.992Z,30.30
2019-03-31T11:52:51.665Z,31.40
2019-03-31T11:55:23.182Z,29.30
2019-03-31T11:57:54.918Z,31.00
2019-03-31T12:00:28.661Z,28.80
2019-03-31T12:03:00.214Z,27.90
2019-03-31T12:05:32.063Z,28.30
2019-03-31T12:08:03.551Z,29.00
2019-03-31T12:10:35.103Z,26.10
2019-03-31T12:13:06.499Z,31.50
2019-03-31T12:15:38.406Z,27.80
2019-03-31T12:18:09.933Z,27.40
2019-03-31T12:20:41.734Z,27.50
2019-03-31T12:23:13.947Z,26.90
2019-03-31T12:25:45.377Z,29.00
2019-03-31T12:28:16.829Z,30.60
2019-03-31T12:30:48.626Z,29.60
2019-03-31T12:33:20.207Z,29.30
2019-03-31T12:35:51.719Z,27.20
2019-03-31T12:38:23.267Z,27.80
2019-03-31T12:40:54.829Z,30.30
2019-03-31T12:43:26.350Z,29.30
2019-03-31T12:45:57.816Z,29.40
2019-03-31T12:48:31.660Z,29.70
2019-03-31T12:51:02.499Z,28.30
2019-03-31T12:53:34.321Z,28.40
2019-03-31T12:56:05.898Z,27.80
2019-03-31T12:58:37.379Z,28.10
2019-03-31T13:01:09.184Z,27.90
2019-03-31T13:03:40.665Z,28.00
2019-03-31T13:06:12.178Z,29.60
2019-03-31T13:08:43.824Z,29.20
2019-03-31T13:11:16.892Z,31.70
2019-03-31T13:13:48.542Z,32.30
2019-03-31T13:16:20.416Z,30.00
2019-03-31T13:18:52.065Z,28.30
2019-03-31T13:21:23.531Z,29.50
2019-03-31T13:23:55.048Z,29.40
2019-03-31T13:26:26.514Z,29.00
2019-03-31T13:28:58.032Z,28.50
2019-03-31T13:31:29.490Z,28.20
2019-03-31T13:34:00.948Z,28.00
2019-03-31T13:36:32.440Z,29.00
2019-03-31T13:39:22.819Z,29.00
2019-03-31T13:41:54.375Z,27.80
2019-03-31T13:44:25.819Z,28.50
2019-03-31T13:46:57.289Z,27.50
2019-03-31T13:49:28.837Z,27.90
2019-03-31T13:52:00.266Z,28.50
2019-03-31T13:54:31.698Z,29.10
2019-03-31T13:57:03.610Z,28.40
2019-03-31T13:59:35.304Z,28.40
2019-03-31T14:02:07.215Z,28.20
2019-03-31T14:04:51.030Z,28.80
2019-03-31T14:07:11.930Z,28.80
2019-03-31T14:09:43.855Z,28.20
2019-03-31T14:12:18.962Z,27.90
2019-03-31T14:14:50.445Z,28.10
2019-03-31T14:17:24.429Z,27.90
2019-03-31T14:19:55.188Z,29.20
2019-03-31T14:22:26.626Z,28.00
2019-03-31T14:24:58.250Z,29.40
2019-03-31T14:27:29.757Z,29.50
2019-03-31T14:30:01.154Z,29.80
2019-03-31T14:32:32.714Z,29.40
2019-03-31T14:35:04.375Z,29.00
2019-03-31T14:37:35.877Z,29.50
2019-03-31T14:40:07.508Z,29.50
2019-03-31T14:42:39.406Z,29.80
2019-03-31T14:45:13.800Z,29.70
2019-03-31T14:47:45.385Z,29.40
2019-03-31T14:50:30.246Z,29.90
2019-03-31T14:53:01.713Z,30.30
2019-03-31T14:55:33.229Z,31.60
2019-03-31T14:58:07.777Z,31.00
2019-03-31T15:00:38.265Z,30.50
2019-03-31T15:03:09.753Z,32.10
2019-03-31T15:05:41.485Z,31.20
2019-03-31T15:08:13.008Z,31.10
2019-03-31T15:10:44.508Z,31.90
2019-03-31T15:13:16.025Z,33.40
2019-03-31T15:15:47.489Z,32.80
2019-03-31T15:18:19.563Z,33.20
2019-03-31T15:20:51.495Z,33.60
2019-03-31T15:23:28.863Z,33.00
2019-03-31T15:25:56.505Z,33.70
2019-03-31T15:28:28.044Z,34.70
2019-03-31T15:30:59.975Z,34.50
2019-03-31T15:33:31.450Z,34.10
2019-03-31T15:36:02.919Z,35.00
2019-03-31T15:38:34.330Z,34.90
2019-03-31T15:41:05.722Z,36.00
2019-03-31T15:43:37.198Z,36.60
2019-03-31T15:46:08.793Z,37.20
2019-03-31T15:48:40.189Z,37.40
2019-03-31T15:51:11.723Z,38.10
2019-03-31T15:53:43.292Z,38.30
2019-03-31T15:56:14.828Z,39.40
2019-03-31T15:58:46.473Z,39.50
2019-03-31T16:01:18.482Z,40.00
2019-03-31T16:03:50.007Z,40.50
2019-03-31T16:06:21.788Z,40.70
2019-03-31T16:08:55.536Z,40.80
2019-03-31T16:11:26.276Z,41.50
2019-03-31T16:13:56.939Z,41.60
2019-03-31T16:16:30.444Z,41.50
2019-03-31T16:19:00.053Z,41.80
2019-03-31T16:21:30.640Z,42.40
2019-03-31T16:24:01.345Z,42.00
2019-03-31T16:26:31.985Z,42.00
2019-03-31T16:29:02.693Z,41.80
2019-03-31T16:31:33.396Z,42.10
2019-03-31T16:34:04.044Z,42.70
2019-03-31T16:36:34.660Z,42.10
2019-03-31T16:39:07.693Z,42.70
2019-03-31T16:41:38.697Z,43.00
2019-03-31T16:44:09.286Z,42.90
2019-03-31T16:46:40.100Z,43.10
2019-03-31T16:49:10.676Z,43.20
2019-03-31T16:51:41.280Z,43.30
2019-03-31T16:54:12.161Z,43.60
2019-03-31T16:56:42.783Z,44.00
2019-03-31T16:59:13.365Z,43.30
2019-03-31T17:01:43.998Z,43.00
2019-03-31T17:04:14.649Z,43.30
2019-03-31T17:06:48.280Z,43.70
2019-03-31T17:09:18.983Z,43.90
2019-03-31T17:11:49.764Z,43.60
2019-03-31T17:14:20.986Z,43.50
2019-03-31T17:16:51.646Z,44.30
2019-03-31T17:19:22.579Z,44.00
2019-03-31T17:21:53.371Z,44.40
2019-03-31T17:24:23.996Z,44.70
2019-03-31T17:26:54.756Z,44.60
2019-03-31T17:29:25.391Z,44.80
2019-03-31T17:31:56.094Z,44.90
2019-03-31T17:34:26.725Z,45.10
2019-03-31T17:36:57.555Z,45.40
2019-03-31T17:39:47.270Z,45.30
2019-03-31T17:42:17.980Z,45.80
2019-03-31T17:44:48.811Z,46.00
2019-03-31T17:47:19.510Z,46.40
2019-03-31T17:49:51.809Z,47.10
2019-03-31T17:52:22.559Z,47.00
2019-03-31T17:54:56.561Z,47.40
2019-03-31T17:57:49.620Z,47.20
2019-03-31T18:00:22.782Z,47.80
2019-03-31T18:03:15.835Z,48.10
2019-03-31T18:05:50.485Z,48.50
2019-03-31T18:13:55.627Z,49.20
2019-03-31T18:16:26.434Z,49.80
2019-03-31T18:18:57.134Z,50.40
2019-03-31T18:21:57.082Z,50.70
2019-03-31T18:28:26.900Z,50.70
2019-03-31T18:36:35.833Z,51.20
2019-03-31T18:38:55.452Z,51.60
2019-03-31T18:41:26.945Z,52.20
2019-03-31T18:43:57.698Z,51.70
2019-03-31T18:46:28.325Z,51.90
2019-03-31T18:48:59.090Z,52.10
2019-03-31T18:51:29.719Z,52.00
2019-03-31T18:54:25.541Z,52.80
2019-03-31T18:57:15.142Z,52.20
2019-03-31T19:00:05.570Z,52.40
2019-03-31T19:03:04.476Z,52.70
2019-03-31T19:05:53.407Z,53.00
2019-03-31T19:08:34.776Z,53.10
2019-03-31T19:11:34.978Z,53.70
2019-03-31T19:14:23.633Z,54.70
2019-03-31T19:17:00.478Z,54.50
2019-03-31T19:19:40.800Z,54.70
2019-03-31T19:22:28.471Z,55.10
2019-03-31T19:25:17.057Z,55.10
2019-03-31T19:27:59.703Z,55.40
2019-03-31T19:30:56.963Z,54.70
2019-03-31T19:33:51.117Z,54.90
2019-03-31T19:36:39.887Z,55.20
2019-03-31T19:39:32.822Z,55.20
2019-03-31T19:42:22.237Z,55.10
2019-03-31T19:45:02.931Z,55.00
2019-03-31T19:47:52.607Z,55.10
2019-03-31T19:50:42.001Z,55.10
2019-03-31T19:53:30.443Z,55.10
2019-03-31T19:56:27.004Z,55.00
2019-03-31T19:59:07.442Z,54.70
2019-03-31T20:01:50.840Z,54.80
2019-03-31T20:04:51.319Z,54.80
2019-03-31T20:07:48.747Z,54.90
2019-03-31T20:10:36.984Z,54.80
2019-03-31T20:13:33.567Z,55.10
2019-03-31T20:16:29.729Z,55.10
2019-03-31T20:19:18.982Z,55.10
2019-03-31T20:22:15.277Z,55.30
2019-03-31T20:25:12.719Z,55.30
2019-03-31T20:28:01.008Z,55.20
2019-03-31T20:31:00.398Z,55.30
2019-03-31T20:33:39.092Z,55.20
2019-03-31T20:36:25.953Z,55.50
2019-03-31T20:39:18.380Z,55.40
2019-03-31T20:41:58.291Z,55.10
2019-03-31T20:44:38.753Z,55.30
2019-03-31T20:50:29.326Z,55.50
2019-03-31T20:53:21.772Z,55.70
2019-03-31T20:55:53.023Z,55.70
2019-03-31T20:58:23.948Z,55.70
2019-03-31T21:01:00.955Z,55.90
2019-03-31T21:03:31.968Z,55.80
2019-03-31T21:06:02.894Z,56.10
2019-03-31T21:08:34.452Z,56.20
2019-03-31T21:11:05.702Z,56.20
2019-03-31T21:13:41.136Z,56.20
2019-03-31T21:16:36.445Z,56.30
2019-03-31T21:19:07.235Z,56.60
2019-03-31T21:21:38.593Z,56.60
2019-03-31T21:24:10.876Z,56.60
2019-03-31T21:26:41.514Z,56.60
2019-03-31T21:29:12.410Z,56.90
2019-03-31T21:31:43.166Z,56.90
2019-03-31T21:34:15.905Z,57.10
2019-03-31T21:36:49.480Z,57.20
2019-03-31T21:39:20.140Z,57.40
2019-03-31T21:41:50.749Z,58.00
2019-03-31T21:44:21.812Z,58.10
2019-03-31T21:46:55.835Z,58.30
2019-03-31T21:49:26.827Z,58.50
2019-03-31T21:51:58.779Z,58.60
2019-03-31T21:54:29.403Z,58.70
2019-03-31T21:57:00.273Z,59.20
2019-03-31T21:59:33.547Z,58.90
2019-03-31T22:02:03.182Z,59.10
2019-03-31T22:04:33.861Z,59.90
2019-03-31T22:07:04.577Z,59.60
2019-03-31T22:09:35.416Z,59.20
2019-03-31T22:12:06.182Z,59.60
2019-03-31T22:14:36.784Z,59.80
2019-03-31T22:17:07.386Z,59.80
2019-03-31T22:19:37.965Z,60.10
2019-03-31T22:22:08.570Z,60.30
2019-03-31T22:24:39.848Z,60.50
2019-03-31T22:27:10.464Z,60.10
2019-03-31T22:29:41.100Z,60.70
2019-03-31T22:32:11.851Z,60.50
2019-03-31T22:34:43.210Z,60.90
2019-03-31T22:37:13.770Z,61.70
2019-03-31T22:39:44.490Z,61.90
2019-03-31T22:42:15.053Z,62.10
2019-03-31T22:44:45.744Z,62.40
2019-03-31T22:47:16.317Z,62.00
2019-03-31T22:49:49.978Z,62.20
2019-03-31T22:52:20.561Z,62.40
2019-03-31T22:54:51.643Z,62.40
2019-03-31T22:57:22.389Z,62.80
2019-03-31T22:59:53.036Z,62.40
2019-03-31T23:02:23.608Z,62.90
2019-03-31T23:04:54.220Z,63.10
2019-03-31T23:07:24.768Z,63.00
2019-03-31T23:09:55.577Z,63.00
2019-03-31T23:12:26.280Z,63.40
2019-03-31T23:14:56.895Z,62.90
2019-03-31T23:17:27.692Z,63.00
2019-03-31T23:19:58.305Z,62.90
2019-03-31T23:22:28.927Z,63.40
2019-03-31T23:24:59.587Z,62.80
2019-03-31T23:27:30.144Z,63.10
2019-03-31T23:30:01.011Z,63.10
2019-03-31T23:32:31.600Z,62.90
2019-03-31T23:35:02.284Z,62.90
2019-03-31T23:37:32.884Z,63.30
2019-03-31T23:40:03.622Z,63.10
2019-03-31T23:42:34.182Z,63.10
2019-03-31T23:45:05.011Z,63.50
2019-03-31T23:47:35.621Z,63.30
2019-03-31T23:50:06.744Z,63.30
2019-03-31T23:52:37.820Z,63.30
2019-03-31T23:55:11.149Z,63.10
2019-03-31T23:57:44.626Z,63.10
